Laurens, New York
Current Conditions -  °F | °C
As of 12:55 PM on Friday 21 Nov 2014 (Local Time) from KNY0 Reporting Station
Broken Clouds Broken Clouds  
Wind Chill: 14°   Ceiling: 3800
Heat Index: 25°   Visibility: 10mi
Dew Point:   Wind: 13mph
Humidity: 50%   Direction: 290°WNW
Pressure: 30.23"   Gusts: 23mph
Location:  42.53°N, 75.09°W
Report Text: KNY0 211755Z AUTO 29011G20KT 250V310 10SM BKN038 M04/M13 A3023 RMK AO2 T10391129 11039 21075
Loading
Personal Weather Stations






























Interactive Weather Map New forecast layout! Learn more

10-Day Weather Forecast

Advertisements
Track Severe Weather on mobile